createdAt,value
2023-05-15T00:00:08.139Z,19
2023-05-15T00:01:25.140Z,19.1
2023-05-15T00:02:42.213Z,19.1
2023-05-15T00:03:59.170Z,19.2
2023-05-15T00:05:16.184Z,19.2
2023-05-15T00:06:33.182Z,19.2
2023-05-15T00:07:50.135Z,19.2
2023-05-15T00:09:07.192Z,19.3
2023-05-15T00:10:24.560Z,19.3
2023-05-15T00:11:41.136Z,19.3
2023-05-15T00:12:58.128Z,19.2
2023-05-15T00:14:15.151Z,19.2
2023-05-15T00:15:32.132Z,19.1
2023-05-15T00:16:49.164Z,19
2023-05-15T00:18:06.229Z,19
2023-05-15T00:19:23.145Z,19
2023-05-15T00:20:40.144Z,19
2023-05-15T00:21:57.151Z,18.9
2023-05-15T00:23:14.197Z,18.9
2023-05-15T00:24:31.177Z,18.9
2023-05-15T00:25:48.149Z,18.9
2023-05-15T00:27:05.162Z,18.9
2023-05-15T00:28:22.156Z,18.8
2023-05-15T00:29:39.191Z,18.6
2023-05-15T00:30:56.174Z,18.5
2023-05-15T00:32:13.181Z,18.3
2023-05-15T00:33:30.164Z,18.3
2023-05-15T00:34:47.206Z,18.3
2023-05-15T00:36:04.181Z,18.1
2023-05-15T00:37:21.168Z,17.9
2023-05-15T00:38:38.172Z,17.8
2023-05-15T00:39:55.242Z,17.8
2023-05-15T00:41:12.189Z,17.8
2023-05-15T00:42:29.176Z,17.7
2023-05-15T00:43:46.182Z,17.6
2023-05-15T00:45:03.271Z,17.6
2023-05-15T00:46:20.197Z,17.5
2023-05-15T00:47:37.232Z,17.6
2023-05-15T00:48:54.211Z,17.6
2023-05-15T00:50:11.267Z,17.7
2023-05-15T00:51:28.217Z,17.7
2023-05-15T00:52:45.221Z,17.7
2023-05-15T00:54:02.296Z,17.7
2023-05-15T00:55:19.241Z,17.8
2023-05-15T00:56:36.244Z,17.8
2023-05-15T00:57:53.233Z,17.8
2023-05-15T00:59:10.212Z,17.8
2023-05-15T01:00:27.259Z,17.7
2023-05-15T01:01:44.223Z,17.6
2023-05-15T01:03:01.405Z,17.6
2023-05-15T01:04:18.252Z,17.7
2023-05-15T01:05:35.226Z,17.8
2023-05-15T01:06:52.225Z,17.9
2023-05-15T01:08:09.247Z,18
2023-05-15T01:09:26.221Z,18.1
2023-05-15T01:10:43.237Z,18
2023-05-15T01:12:00.246Z,17.9
2023-05-15T01:13:17.274Z,17.8
2023-05-15T01:14:34.232Z,17.8
2023-05-15T01:15:51.229Z,17.7
2023-05-15T01:17:08.515Z,17.7
2023-05-15T01:18:25.319Z,17.8
2023-05-15T01:19:42.394Z,17.8
2023-05-15T01:20:59.337Z,18
2023-05-15T01:22:16.255Z,18.1
2023-05-15T01:23:33.286Z,18.2
2023-05-15T01:24:50.276Z,18.3
2023-05-15T01:26:07.278Z,18.3
2023-05-15T01:27:24.256Z,18.3
2023-05-15T01:28:41.280Z,18.3
2023-05-15T01:29:58.255Z,18.2
2023-05-15T01:31:15.288Z,18
2023-05-15T01:32:32.289Z,17.9
2023-05-15T01:33:49.288Z,17.8
2023-05-15T01:35:06.272Z,17.7
2023-05-15T01:36:23.302Z,17.7
2023-05-15T01:37:40.272Z,17.6
2023-05-15T01:38:57.275Z,17.7
2023-05-15T01:40:14.340Z,17.8
2023-05-15T01:41:31.284Z,18
2023-05-15T01:42:48.310Z,18.1
2023-05-15T01:44:05.272Z,18.2
2023-05-15T01:45:22.545Z,18.2
2023-05-15T01:46:39.330Z,18.3
2023-05-15T01:47:56.293Z,18.3
2023-05-15T01:49:13.396Z,18.4
2023-05-15T01:50:31.628Z,18.4
2023-05-15T01:51:48.295Z,18.5
2023-05-15T01:53:05.351Z,18.5
2023-05-15T01:54:22.297Z,18.6
2023-05-15T01:55:39.304Z,18.6
2023-05-15T01:56:56.296Z,18.6
2023-05-15T01:58:13.324Z,18.7
2023-05-15T01:59:30.299Z,18.6
2023-05-15T02:00:47.315Z,18.5
2023-05-15T02:02:04.377Z,18.5
2023-05-15T02:03:21.399Z,18.5
2023-05-15T02:04:38.351Z,18.4
2023-05-15T02:05:55.313Z,18.4
2023-05-15T02:07:12.340Z,18.3
2023-05-15T02:08:29.725Z,18.2
2023-05-15T02:09:46.317Z,18.2
2023-05-15T02:11:03.324Z,18.2
2023-05-15T02:12:20.342Z,18.3
2023-05-15T02:13:37.396Z,18.3
2023-05-15T02:14:54.344Z,18.4
2023-05-15T02:16:11.380Z,18.5
2023-05-15T02:17:28.394Z,18.5
2023-05-15T02:18:45.359Z,18.5
2023-05-15T02:20:02.404Z,18.5
2023-05-15T02:21:19.339Z,18.5
2023-05-15T02:22:36.349Z,18.5
2023-05-15T02:23:53.355Z,18.4
2023-05-15T02:25:10.387Z,18.2
2023-05-15T02:26:27.342Z,18.1
2023-05-15T02:27:44.351Z,17.9
2023-05-15T02:29:01.338Z,17.7
2023-05-15T02:30:19.029Z,17.4
2023-05-15T02:31:36.424Z,17.2
2023-05-15T02:32:53.370Z,17
2023-05-15T02:34:10.442Z,17
2023-05-15T02:35:27.705Z,17.1
2023-05-15T02:36:44.366Z,17.2
2023-05-15T02:38:01.386Z,17.3
2023-05-15T02:39:18.407Z,17.3
2023-05-15T02:40:35.428Z,17.4
2023-05-15T02:41:52.379Z,17.5
2023-05-15T02:43:09.364Z,17.6
2023-05-15T02:44:26.450Z,17.6
2023-05-15T02:45:43.444Z,17.6
2023-05-15T02:47:00.442Z,17.6
2023-05-15T02:48:17.380Z,17.7
2023-05-15T02:49:34.385Z,17.7
2023-05-15T02:50:51.459Z,17.7
2023-05-15T02:52:08.379Z,17.7
2023-05-15T02:53:25.424Z,17.7
2023-05-15T02:54:42.379Z,17.8
2023-05-15T02:55:59.475Z,17.8
2023-05-15T02:57:16.380Z,17.9
2023-05-15T02:58:33.796Z,18
2023-05-15T02:59:50.401Z,18
2023-05-15T03:01:07.468Z,18.1
2023-05-15T03:02:24.442Z,18.2
2023-05-15T03:03:41.454Z,18.2
2023-05-15T03:04:58.410Z,18.1
2023-05-15T03:06:15.435Z,18.1
2023-05-15T03:07:32.399Z,18.1
2023-05-15T03:08:49.471Z,18
2023-05-15T03:10:06.411Z,17.9
2023-05-15T03:11:23.404Z,17.9
2023-05-15T03:12:40.407Z,17.8
2023-05-15T03:13:57.493Z,17.8
2023-05-15T03:15:14.407Z,17.9
2023-05-15T03:16:31.424Z,18
2023-05-15T03:17:48.468Z,18.1
2023-05-15T03:19:05.514Z,18
2023-05-15T03:20:22.487Z,17.8
2023-05-15T03:21:39.476Z,17.6
2023-05-15T03:22:56.438Z,17.5
2023-05-15T03:24:13.492Z,17.5
2023-05-15T03:25:30.432Z,17.4
2023-05-15T03:26:47.429Z,17.2
2023-05-15T03:28:04.458Z,17.3
2023-05-15T03:29:21.459Z,17.5
2023-05-15T03:30:38.443Z,17.6
2023-05-15T03:31:55.504Z,17.7
2023-05-15T03:33:12.498Z,17.8
2023-05-15T03:34:29.442Z,17.8
2023-05-15T03:35:46.476Z,17.9
2023-05-15T03:37:03.527Z,17.9
2023-05-15T03:38:20.448Z,18
2023-05-15T03:39:37.456Z,18.1
2023-05-15T03:40:54.460Z,18.2
2023-05-15T03:42:11.480Z,18.3
2023-05-15T03:43:28.458Z,18.3
2023-05-15T03:44:45.455Z,18.4
2023-05-15T03:46:02.528Z,18.4
2023-05-15T03:47:19.490Z,18.4
2023-05-15T03:48:36.458Z,18.4
2023-05-15T03:49:53.512Z,18.5
2023-05-15T03:51:10.470Z,18.5
2023-05-15T03:52:27.522Z,18.4
2023-05-15T03:53:44.497Z,18.4
2023-05-15T03:55:01.561Z,18.4
2023-05-15T03:56:18.474Z,18.4
2023-05-15T03:57:35.495Z,18.4
2023-05-15T03:58:52.491Z,18.3
2023-05-15T04:00:09.551Z,18.2
2023-05-15T04:01:26.538Z,18.1
2023-05-15T04:02:43.527Z,18.1
2023-05-15T04:04:00.525Z,18.1
2023-05-15T04:05:17.508Z,18.1
2023-05-15T04:06:34.560Z,18.1
2023-05-15T04:07:51.524Z,18.1
2023-05-15T04:09:08.495Z,18.1
2023-05-15T04:10:25.665Z,18.2
2023-05-15T04:11:42.560Z,18.1
2023-05-15T04:12:59.501Z,18
2023-05-15T04:14:16.503Z,17.9
2023-05-15T04:15:33.518Z,17.8
2023-05-15T04:16:50.549Z,17.6
2023-05-15T04:18:07.569Z,17.6
2023-05-15T04:19:24.513Z,17.5
2023-05-15T04:20:41.538Z,17.4
2023-05-15T04:21:58.512Z,17.4
2023-05-15T04:23:15.570Z,17.4
2023-05-15T04:24:32.520Z,17.4
2023-05-15T04:25:49.530Z,17.5
2023-05-15T04:27:06.553Z,17.7
2023-05-15T04:28:23.579Z,17.8
2023-05-15T04:29:40.526Z,17.9
2023-05-15T04:30:57.535Z,18
2023-05-15T04:32:14.643Z,18.1
2023-05-15T04:33:31.641Z,18.2
2023-05-15T04:34:48.576Z,18.2
2023-05-15T04:36:05.575Z,18.3
2023-05-15T04:37:22.591Z,18.3
2023-05-15T04:38:39.589Z,18.4
2023-05-15T04:39:56.615Z,18.4
2023-05-15T04:41:13.564Z,18.4
2023-05-15T04:42:30.544Z,18.4
2023-05-15T04:43:47.608Z,18.2
2023-05-15T04:45:04.562Z,18.2
2023-05-15T04:46:21.612Z,18.3
2023-05-15T04:47:38.604Z,18.3
2023-05-15T04:48:55.582Z,18.4
2023-05-15T04:50:12.605Z,18.4
2023-05-15T04:51:29.613Z,18.5
2023-05-15T04:52:46.552Z,18.5
2023-05-15T04:54:03.614Z,18.6
2023-05-15T04:55:20.580Z,18.6
2023-05-15T04:56:37.595Z,18.6
2023-05-15T04:57:54.571Z,18.7
2023-05-15T04:59:11.575Z,18.7
2023-05-15T05:00:28.581Z,18.7
2023-05-15T05:01:45.647Z,18.7
2023-05-15T05:03:02.621Z,18.8
2023-05-15T05:04:19.580Z,18.7
2023-05-15T05:05:36.585Z,18.6
2023-05-15T05:06:53.672Z,18.5
2023-05-15T05:08:10.584Z,18.4
2023-05-15T05:09:27.615Z,18.3
2023-05-15T05:10:44.584Z,18.2
2023-05-15T05:12:01.641Z,18.2
2023-05-15T05:13:18.597Z,18.3
2023-05-15T05:14:35.656Z,18.5
2023-05-15T05:15:52.657Z,18.6
2023-05-15T05:17:09.614Z,18.7
2023-05-15T05:18:26.719Z,18.9
2023-05-15T05:19:43.710Z,18.9
2023-05-15T05:21:00.650Z,19
2023-05-15T05:22:17.639Z,19.1
2023-05-15T05:23:34.612Z,19.2
2023-05-15T05:24:51.727Z,19.2
2023-05-15T05:26:08.628Z,19.3
2023-05-15T05:27:25.622Z,19.3
2023-05-15T05:28:42.623Z,19.3
2023-05-15T05:29:59.654Z,19.4
2023-05-15T05:31:16.694Z,19.4
2023-05-15T05:32:33.696Z,19.4
2023-05-15T05:33:50.666Z,19.4
2023-05-15T05:35:07.695Z,19.5
2023-05-15T05:36:24.678Z,19.4
2023-05-15T05:37:41.712Z,19.5
2023-05-15T05:38:58.636Z,19.5
2023-05-15T05:40:15.716Z,19.5
2023-05-15T05:41:32.630Z,19.5
2023-05-15T05:42:49.673Z,19.5
2023-05-15T05:44:06.685Z,19.6
2023-05-15T05:45:23.846Z,19.6
2023-05-15T05:46:40.675Z,19.6
2023-05-15T05:47:57.726Z,19.5
2023-05-15T05:49:14.679Z,19.6
2023-05-15T05:50:31.660Z,19.5
2023-05-15T05:51:48.656Z,19.5
2023-05-15T05:53:05.684Z,19.5
2023-05-15T05:54:22.658Z,19.6
2023-05-15T05:55:39.692Z,19.5
2023-05-15T05:56:56.697Z,19.4
2023-05-15T05:58:18.240Z,19.2
2023-05-15T05:59:30.691Z,19.2
2023-05-15T06:00:47.687Z,19.1
2023-05-15T06:02:04.787Z,19
2023-05-15T06:03:21.812Z,19
2023-05-15T06:04:38.704Z,18.9
2023-05-15T06:05:55.686Z,18.8
2023-05-15T06:07:12.738Z,18.9
2023-05-15T06:08:29.682Z,19
2023-05-15T06:09:46.688Z,19.1
2023-05-15T06:11:03.737Z,19.3
2023-05-15T06:12:22.930Z,19.4
2023-05-15T06:13:37.699Z,19.5
2023-05-15T06:14:54.701Z,19.6
2023-05-15T06:16:11.747Z,19.7
2023-05-15T06:17:28.762Z,19.8
2023-05-15T06:18:45.707Z,19.9
2023-05-15T06:20:02.744Z,19.9
2023-05-15T06:21:19.760Z,19.8
2023-05-15T06:22:36.893Z,19.8
2023-05-15T06:23:53.806Z,19.9
2023-05-15T06:25:11.283Z,19.9
2023-05-15T06:26:28.768Z,20
2023-05-15T06:27:45.707Z,20
2023-05-15T06:29:02.730Z,20.1
2023-05-15T06:30:19.736Z,20.1
2023-05-15T06:31:36.744Z,20.1
2023-05-15T06:32:53.809Z,20.1
2023-05-15T06:34:10.732Z,20.1
2023-05-15T06:35:27.776Z,20.2
2023-05-15T06:36:44.741Z,20.2
2023-05-15T06:38:01.782Z,20.1
2023-05-15T06:39:18.796Z,20
2023-05-15T06:40:35.731Z,19.7
2023-05-15T06:41:52.764Z,19.4
2023-05-15T06:43:09.751Z,19.2
2023-05-15T06:44:26.806Z,19.3
2023-05-15T06:45:43.775Z,19.5
2023-05-15T06:47:00.877Z,19.7
2023-05-15T06:48:17.822Z,19.7
2023-05-15T06:49:34.761Z,19.7
2023-05-15T06:50:51.888Z,19.6
2023-05-15T06:52:08.823Z,19.6
2023-05-15T06:53:25.756Z,19.6
2023-05-15T06:54:42.763Z,19.4
2023-05-15T06:55:59.775Z,19.3
2023-05-15T06:57:16.830Z,19.2
2023-05-15T06:58:33.815Z,19.1
2023-05-15T06:59:50.765Z,19.1
2023-05-15T07:01:07.779Z,19.2
2023-05-15T07:02:24.813Z,19.2
2023-05-15T07:03:42.045Z,19.2
2023-05-15T07:04:58.806Z,19.2
2023-05-15T07:06:15.775Z,19.3
2023-05-15T07:07:32.778Z,19.3
2023-05-15T07:08:49.851Z,19.3
2023-05-15T07:10:06.794Z,19.4
2023-05-15T07:11:23.802Z,19.4
2023-05-15T07:12:40.961Z,19.4
2023-05-15T07:13:57.815Z,19.3
2023-05-15T07:15:14.810Z,19.3
2023-05-15T07:16:31.784Z,19.4
2023-05-15T07:17:48.825Z,19.5
2023-05-15T07:19:05.884Z,19.5
2023-05-15T07:20:22.872Z,19.5
2023-05-15T07:21:39.823Z,19.5
2023-05-15T07:22:57.109Z,19.5
2023-05-15T07:24:13.847Z,19.4
2023-05-15T07:25:30.818Z,19.4
2023-05-15T07:26:57.925Z,19.6
2023-05-15T07:28:04.896Z,19.6
2023-05-15T07:29:21.817Z,19.5
2023-05-15T07:30:39.040Z,19.3
2023-05-15T07:31:56.359Z,19.2
2023-05-15T07:33:12.921Z,19.2
2023-05-15T07:34:29.813Z,19.4
2023-05-15T07:35:46.861Z,19.5
2023-05-15T07:37:03.875Z,19.6
2023-05-15T07:38:20.870Z,19.4
2023-05-15T07:39:37.855Z,19.4
2023-05-15T07:40:54.831Z,19.4
2023-05-15T07:42:11.831Z,19.4
2023-05-15T07:43:28.911Z,19.5
2023-05-15T07:44:47.294Z,19.4
2023-05-15T07:46:02.870Z,19.2
2023-05-15T07:47:19.925Z,19.1
2023-05-15T07:48:36.877Z,19
2023-05-15T07:49:53.923Z,19
2023-05-15T07:51:10.884Z,19
2023-05-15T07:52:27.893Z,18.7
2023-05-15T07:53:44.888Z,18.4
2023-05-15T07:55:04.662Z,18.2
2023-05-15T07:56:20.860Z,18.3
2023-05-15T07:57:37.925Z,18.4
2023-05-15T07:58:54.945Z,18.5
2023-05-15T08:00:11.945Z,18.7
2023-05-15T08:01:30.624Z,18.8
2023-05-15T08:02:46.092Z,18.9
2023-05-15T08:04:02.984Z,18.9
2023-05-15T08:05:19.921Z,19.1
2023-05-15T08:06:37.741Z,19.3
2023-05-15T08:07:54.946Z,19.5
2023-05-15T08:09:11.942Z,19.7
2023-05-15T08:10:28.897Z,19.9
2023-05-15T08:11:45.899Z,19.9
2023-05-15T08:13:02.946Z,19.9
2023-05-15T08:14:19.939Z,20
2023-05-15T08:15:36.904Z,20
2023-05-15T08:16:53.933Z,20.1
2023-05-15T08:18:10.897Z,20.1
2023-05-15T08:19:27.928Z,20.1
2023-05-15T08:20:44.886Z,20.1
2023-05-15T08:22:01.937Z,20.2
2023-05-15T08:23:18.864Z,20.4
2023-05-15T08:24:35.935Z,20.6
2023-05-15T08:25:52.890Z,20.7
2023-05-15T08:27:09.909Z,20.7
2023-05-15T08:28:26.913Z,20.6
2023-05-15T08:29:43.974Z,20.5
2023-05-15T08:31:00.990Z,20.5
2023-05-15T08:33:46.964Z,20.3
2023-05-15T08:35:03.927Z,20.4
2023-05-15T08:36:20.934Z,20.5
2023-05-15T08:37:38.058Z,20.7
2023-05-15T08:38:54.935Z,20.9
2023-05-15T08:40:12.799Z,21
2023-05-15T08:41:39.811Z,21.1
2023-05-15T08:42:47.944Z,21
2023-05-15T08:44:04.999Z,21
2023-05-15T08:45:21.999Z,20.8
2023-05-15T08:46:38.995Z,20.6
2023-05-15T08:47:56.651Z,20.2
2023-05-15T08:49:14.007Z,19.9
2023-05-15T08:50:30.986Z,19.8
2023-05-15T08:51:47.950Z,19.8
2023-05-15T08:53:04.945Z,19.8
2023-05-15T08:54:21.964Z,19.7
2023-05-15T08:55:39.045Z,19.7
2023-05-15T08:56:55.983Z,19.6
2023-05-15T08:58:12.976Z,19.7
2023-05-15T08:59:29.972Z,19.8
2023-05-15T09:00:47.001Z,19.8
2023-05-15T09:02:04.054Z,19.9
2023-05-15T09:03:21.020Z,20
2023-05-15T09:04:38.053Z,20
2023-05-15T09:05:55.029Z,20.1
2023-05-15T09:07:11.972Z,20.2
2023-05-15T09:08:29.002Z,20.4
2023-05-15T09:09:45.977Z,20.6
2023-05-15T09:11:06.399Z,20.5
2023-05-15T09:12:25.211Z,20.3
2023-05-15T09:13:42.023Z,20.2
2023-05-15T09:14:59.131Z,20.1
2023-05-15T09:16:21.586Z,20
2023-05-15T09:17:40.356Z,19.9
2023-05-15T09:18:57.429Z,19.8
2023-05-15T09:20:14.011Z,19.7
2023-05-15T09:21:30.999Z,19.7
2023-05-15T09:22:48.004Z,19.6
2023-05-15T09:24:05.037Z,19.5
2023-05-15T09:25:22.048Z,19.5
2023-05-15T09:26:40.631Z,19.5
2023-05-15T09:27:58.024Z,19.5
2023-05-15T09:29:16.233Z,19.5
2023-05-15T09:30:32.024Z,19.5
2023-05-15T09:31:49.107Z,19.6
2023-05-15T09:33:06.113Z,19.5
2023-05-15T09:34:23.116Z,19.4
2023-05-15T09:35:40.241Z,19.3
2023-05-15T09:36:57.589Z,19.3
2023-05-15T09:38:14.038Z,19.3
2023-05-15T09:39:31.379Z,19.1
2023-05-15T09:40:49.060Z,18.9
2023-05-15T09:42:06.043Z,18.8
2023-05-15T09:43:23.023Z,18.7
2023-05-15T09:44:40.172Z,18.8
2023-05-15T09:45:57.103Z,18.9
2023-05-15T09:47:14.136Z,18.9
2023-05-15T09:48:31.078Z,18.9
2023-05-15T09:49:48.268Z,18.9
2023-05-15T09:51:05.083Z,19
2023-05-15T09:52:22.097Z,19
2023-05-15T09:53:40.313Z,19.1
2023-05-15T09:54:57.101Z,19.3
2023-05-15T09:56:14.082Z,19.5
2023-05-15T09:57:32.166Z,19.7
2023-05-15T09:58:49.094Z,19.9
2023-05-15T10:00:06.213Z,20.1
2023-05-15T10:01:27.105Z,20.2
2023-05-15T10:02:44.137Z,20.2
2023-05-15T10:04:01.054Z,20.2
2023-05-15T10:05:21.510Z,20.3
2023-05-15T10:06:35.312Z,20.4
2023-05-15T10:07:53.323Z,20.6
2023-05-15T10:09:10.091Z,20.8
2023-05-15T10:10:27.090Z,20.8
2023-05-15T10:11:44.133Z,20.8
2023-05-15T10:13:01.097Z,21
2023-05-15T10:14:18.124Z,21
2023-05-15T10:15:35.491Z,21.2
2023-05-15T10:16:52.119Z,21.5
2023-05-15T10:18:09.252Z,21.8
2023-05-15T10:19:26.168Z,21.8
2023-05-15T10:20:43.093Z,21.9
2023-05-15T10:22:00.187Z,22
2023-05-15T10:23:17.081Z,22
2023-05-15T10:24:34.097Z,22.1
2023-05-15T10:25:51.122Z,22.1
2023-05-15T10:27:08.150Z,21.9
2023-05-15T10:28:25.098Z,21.7
2023-05-15T10:29:42.118Z,21.6
2023-05-15T10:30:59.190Z,21.7
2023-05-15T10:32:16.260Z,21.7
2023-05-15T10:33:33.150Z,21.6
2023-05-15T10:34:50.126Z,21.4
2023-05-15T10:36:07.145Z,21.1
2023-05-15T10:37:24.141Z,20.8
2023-05-15T10:38:41.107Z,20.8
2023-05-15T10:39:58.111Z,20.5
2023-05-15T10:41:17.472Z,20.4
2023-05-15T10:42:32.168Z,20.3
2023-05-15T10:43:50.131Z,20.3
2023-05-15T10:45:07.153Z,20.2
2023-05-15T10:46:24.196Z,20.3
2023-05-15T10:47:41.233Z,20.6
2023-05-15T10:48:58.261Z,20.9
2023-05-15T10:50:15.252Z,21.2
2023-05-15T10:51:32.146Z,21.5
2023-05-15T10:52:49.223Z,21.7
2023-05-15T10:54:06.182Z,21.7
2023-05-15T10:55:23.170Z,21.6
2023-05-15T10:56:40.193Z,21.5
2023-05-15T10:57:57.193Z,21.6
2023-05-15T10:59:14.182Z,21.8
2023-05-15T11:00:31.180Z,22
2023-05-15T11:01:48.169Z,22.2
2023-05-15T11:03:05.256Z,22.5
2023-05-15T11:04:22.207Z,22.5
2023-05-15T11:05:39.237Z,22.4
2023-05-15T11:06:56.170Z,22.2
2023-05-15T11:08:13.152Z,22.1
2023-05-15T11:09:30.170Z,22
2023-05-15T11:10:47.201Z,22
2023-05-15T11:12:04.186Z,22.1
2023-05-15T11:13:21.184Z,22.2
2023-05-15T11:14:38.165Z,22.3
2023-05-15T11:15:55.205Z,22.6
2023-05-15T11:17:12.275Z,22.7
2023-05-15T11:18:29.263Z,22.8
2023-05-15T11:19:46.223Z,22.5
2023-05-15T11:21:03.287Z,22.3
2023-05-15T11:22:20.173Z,22.2
2023-05-15T11:23:37.203Z,22.1
2023-05-15T11:24:54.180Z,22.1
2023-05-15T11:26:11.245Z,22.1
2023-05-15T11:27:28.180Z,22.1
2023-05-15T11:28:45.232Z,22.2
2023-05-15T11:30:02.216Z,22.4
2023-05-15T11:31:19.304Z,22.7
2023-05-15T11:32:36.528Z,22.9
2023-05-15T11:33:55.208Z,23.2
2023-05-15T11:35:12.257Z,23.3
2023-05-15T11:36:29.260Z,23.3
2023-05-15T11:37:46.362Z,22.9
2023-05-15T11:39:03.231Z,22.5
2023-05-15T11:40:20.222Z,22.3
2023-05-15T11:41:37.249Z,22.1
2023-05-15T11:42:54.280Z,21.9
2023-05-15T11:44:11.209Z,22
2023-05-15T11:45:28.204Z,22.2
2023-05-15T11:46:45.252Z,22.4
2023-05-15T11:48:02.368Z,22.8
2023-05-15T11:49:19.233Z,23.2
2023-05-15T11:50:36.280Z,23.3
2023-05-15T11:51:53.272Z,23.1
2023-05-15T11:53:10.252Z,23
2023-05-15T11:54:27.240Z,23
2023-05-15T11:55:44.227Z,22.9
2023-05-15T11:57:01.278Z,22.9
2023-05-15T11:58:18.275Z,23
2023-05-15T11:59:35.299Z,23.1
2023-05-15T12:00:52.295Z,23
2023-05-15T12:02:09.250Z,22.8
2023-05-15T12:03:26.439Z,22.7
2023-05-15T12:04:43.330Z,22.5
2023-05-15T12:06:00.455Z,22.4
2023-05-15T12:07:17.264Z,22.4
2023-05-15T12:08:34.239Z,22.4
2023-05-15T12:09:51.296Z,22.4
2023-05-15T12:11:08.250Z,22.4
2023-05-15T12:12:25.300Z,22.4
2023-05-15T12:13:42.444Z,22.6
2023-05-15T12:14:59.332Z,22.8
2023-05-15T12:16:16.293Z,22.7
2023-05-15T12:17:33.294Z,22.4
2023-05-15T12:18:50.346Z,22.1
2023-05-15T12:20:07.363Z,22
2023-05-15T12:21:24.318Z,21.9
2023-05-15T12:22:41.288Z,21.8
2023-05-15T12:24:07.423Z,21.7
2023-05-15T12:25:15.342Z,21.5
2023-05-15T12:26:32.319Z,21.4
2023-05-15T12:27:49.301Z,21.3
2023-05-15T12:29:06.299Z,21.4
2023-05-15T12:30:23.447Z,21.8
2023-05-15T12:31:40.297Z,22.2
2023-05-15T12:32:57.370Z,22.8
2023-05-15T12:34:14.397Z,23.5
2023-05-15T12:35:31.323Z,24
2023-05-15T12:36:48.330Z,24.3
2023-05-15T12:38:05.335Z,24.4
2023-05-15T12:39:22.319Z,24.2
2023-05-15T12:40:39.337Z,23.9
2023-05-15T12:41:56.353Z,23.6
2023-05-15T12:43:13.347Z,23.2
2023-05-15T12:44:30.343Z,22.9
2023-05-15T12:45:47.341Z,22.7
2023-05-15T12:47:04.315Z,22.5
2023-05-15T12:48:21.356Z,22.4
2023-05-15T12:49:38.315Z,22.4
2023-05-15T12:50:55.331Z,22.4
2023-05-15T12:52:12.411Z,22.3
2023-05-15T12:53:29.356Z,22.3
2023-05-15T12:54:46.354Z,22.4
2023-05-15T12:56:03.557Z,22.6
2023-05-15T12:57:20.369Z,22.6
2023-05-15T12:58:37.356Z,22.7
2023-05-15T12:59:54.372Z,22.8
2023-05-15T13:01:11.409Z,23
2023-05-15T13:02:28.397Z,22.9
2023-05-15T13:03:45.527Z,23
2023-05-15T13:05:02.372Z,23.2
2023-05-15T13:06:19.881Z,23.5
2023-05-15T13:07:36.403Z,23.8
2023-05-15T13:08:53.342Z,23.9
2023-05-15T13:10:10.350Z,24.1
2023-05-15T13:11:27.983Z,24.4
2023-05-15T13:12:44.350Z,24.3
2023-05-15T13:14:01.386Z,24.3
2023-05-15T13:15:18.381Z,24.3
2023-05-15T13:16:35.450Z,24.2
2023-05-15T13:17:52.410Z,23.9
2023-05-15T13:19:09.398Z,23.5
2023-05-15T13:20:26.511Z,23
2023-05-15T13:21:43.411Z,22.7
2023-05-15T13:23:00.465Z,22.4
2023-05-15T13:24:17.374Z,22.3
2023-05-15T13:25:34.380Z,22.3
2023-05-15T13:26:51.374Z,22.2
2023-05-15T13:28:08.403Z,22.2
2023-05-15T13:29:25.422Z,22.1
2023-05-15T13:30:42.548Z,22
2023-05-15T13:31:59.467Z,21.9
2023-05-15T13:33:16.400Z,21.9
2023-05-15T13:34:33.405Z,21.9
2023-05-15T13:35:50.393Z,22
2023-05-15T13:37:07.409Z,22
2023-05-15T13:38:24.502Z,22
2023-05-15T13:39:41.398Z,21.8
2023-05-15T13:40:58.446Z,21.7
2023-05-15T13:42:15.481Z,21.5
2023-05-15T13:43:32.494Z,21.2
2023-05-15T13:44:50.000Z,21
2023-05-15T13:46:07.461Z,20.7
2023-05-15T13:47:24.425Z,20.5
2023-05-15T13:48:41.427Z,20.4
2023-05-15T13:49:58.419Z,20.3
2023-05-15T13:51:15.458Z,20.3
2023-05-15T13:52:32.559Z,20.3
2023-05-15T13:53:49.444Z,20.3
2023-05-15T13:55:06.466Z,20.3
2023-05-15T13:56:23.428Z,20.3
2023-05-15T13:57:40.474Z,20.3
2023-05-15T13:58:57.431Z,20.3
2023-05-15T14:00:14.460Z,20.2
2023-05-15T14:01:31.490Z,20.1
2023-05-15T14:02:48.520Z,20
2023-05-15T14:04:05.481Z,19.9
2023-05-15T14:05:22.452Z,19.9
2023-05-15T14:06:39.938Z,20
2023-05-15T14:07:57.507Z,20.1
2023-05-15T14:09:14.508Z,20.2
2023-05-15T14:10:31.455Z,20.3
2023-05-15T14:11:48.451Z,20.3
2023-05-15T14:13:05.496Z,20.3
2023-05-15T14:14:22.472Z,20.2
2023-05-15T14:15:39.483Z,20
2023-05-15T14:16:56.536Z,19.9
2023-05-15T14:18:13.506Z,19.8
2023-05-15T14:19:30.504Z,19.8
2023-05-15T14:20:48.320Z,19.8
2023-05-15T14:22:04.495Z,19.7
2023-05-15T14:23:21.463Z,19.6
2023-05-15T14:24:38.506Z,19.6
2023-05-15T14:25:56.279Z,19.6
2023-05-15T14:27:12.519Z,19.7
2023-05-15T14:28:29.613Z,19.8
2023-05-15T14:29:47.518Z,19.9
2023-05-15T14:31:04.524Z,20
2023-05-15T14:32:21.592Z,20
2023-05-15T14:33:38.520Z,20.1
2023-05-15T14:34:55.515Z,20.1
2023-05-15T14:36:12.494Z,20.1
2023-05-15T14:37:29.593Z,20.2
2023-05-15T14:38:46.519Z,20.2
2023-05-15T14:40:03.580Z,20.3
2023-05-15T14:41:20.575Z,20.4
2023-05-15T14:42:37.495Z,20.4
2023-05-15T14:43:54.513Z,20.3
2023-05-15T14:45:11.553Z,20.2
2023-05-15T14:46:28.563Z,20
2023-05-15T14:47:45.576Z,19.9
2023-05-15T14:49:02.553Z,19.8
2023-05-15T14:50:19.516Z,19.8
2023-05-15T14:51:36.530Z,19.8
2023-05-15T14:52:53.548Z,19.8
2023-05-15T14:54:10.517Z,19.8
2023-05-15T14:55:27.537Z,19.8
2023-05-15T14:56:44.526Z,19.7
2023-05-15T14:58:01.600Z,19.7
2023-05-15T14:59:18.526Z,19.7
2023-05-15T15:00:35.558Z,19.6
2023-05-15T15:01:52.567Z,19.4
2023-05-15T15:03:09.654Z,19.4
2023-05-15T15:04:26.550Z,19.2
2023-05-15T15:05:43.543Z,19.2
2023-05-15T15:07:00.531Z,19
2023-05-15T15:08:17.591Z,19
2023-05-15T15:09:34.561Z,19
2023-05-15T15:10:51.576Z,19
2023-05-15T15:12:08.574Z,18.9
2023-05-15T15:13:25.565Z,18.9
2023-05-15T15:14:42.935Z,18.7
2023-05-15T15:15:59.561Z,18.6
2023-05-15T15:17:16.551Z,18.6
2023-05-15T15:18:33.632Z,18.5
2023-05-15T15:19:50.596Z,18.6
2023-05-15T15:21:07.572Z,18.5
2023-05-15T15:22:24.623Z,18.4
2023-05-15T15:23:41.583Z,18.2
2023-05-15T15:25:00.913Z,18.1
2023-05-15T15:26:15.611Z,18.1
2023-05-15T15:27:32.893Z,18.2
2023-05-15T15:28:49.589Z,18.2
2023-05-15T15:30:06.599Z,18.2
2023-05-15T15:31:23.612Z,18.1
2023-05-15T15:32:40.607Z,18
2023-05-15T15:33:57.688Z,17.9
2023-05-15T15:35:14.579Z,17.8
2023-05-15T15:36:31.610Z,17.9
2023-05-15T15:37:48.575Z,18
2023-05-15T15:39:05.611Z,18.1
2023-05-15T15:40:22.578Z,18.2
2023-05-15T15:41:39.773Z,18.2
2023-05-15T15:42:56.733Z,18.1
2023-05-15T15:44:13.592Z,18
2023-05-15T15:45:30.698Z,17.9
2023-05-15T15:46:47.591Z,17.8
2023-05-15T15:48:04.677Z,17.9
2023-05-15T15:49:21.639Z,18
2023-05-15T15:50:38.609Z,18
2023-05-15T15:51:55.604Z,18
2023-05-15T15:53:12.627Z,18.1
2023-05-15T15:54:29.645Z,18.3
2023-05-15T15:55:47.201Z,18.4
2023-05-15T15:57:03.636Z,18.4
2023-05-15T15:58:20.690Z,18.5
2023-05-15T15:59:37.627Z,18.5
2023-05-15T16:00:54.701Z,18.5
2023-05-15T16:02:11.634Z,18.4
2023-05-15T16:03:28.744Z,18.4
2023-05-15T16:04:45.630Z,18.4
2023-05-15T16:06:02.888Z,18.5
2023-05-15T16:07:20.488Z,18.6
2023-05-15T16:08:37.667Z,18.8
2023-05-15T16:10:04.044Z,18.8
2023-05-15T16:11:11.670Z,18.8
2023-05-15T16:12:28.664Z,18.8
2023-05-15T16:13:45.677Z,18.8
2023-05-15T16:15:13.769Z,18.7
2023-05-15T16:16:19.676Z,18.6
2023-05-15T16:17:36.713Z,18.7
2023-05-15T16:18:53.812Z,18.6
2023-05-15T16:20:11.802Z,18.6
2023-05-15T16:21:29.641Z,18.5
2023-05-15T16:22:46.934Z,18.4
2023-05-15T16:24:04.358Z,18.3
2023-05-15T16:25:22.721Z,18.3
2023-05-15T16:26:39.654Z,18.3
2023-05-15T16:27:56.679Z,18.4
2023-05-15T16:29:13.752Z,18.6
2023-05-15T16:30:40.535Z,18.8
2023-05-15T16:31:47.732Z,19.1
2023-05-15T16:33:04.680Z,19.2
2023-05-15T16:34:21.697Z,19.3
2023-05-15T16:35:38.668Z,19.3
2023-05-15T16:36:55.674Z,19.4
2023-05-15T16:38:12.699Z,19.4
2023-05-15T16:39:29.713Z,19.5
2023-05-15T16:40:46.693Z,19.3
2023-05-15T16:42:03.713Z,19.3
2023-05-15T16:43:20.742Z,19.3
2023-05-15T16:44:37.712Z,19.4
2023-05-15T16:45:54.777Z,19.6
2023-05-15T16:47:11.683Z,19.6
2023-05-15T16:48:28.692Z,19.6
2023-05-15T16:49:47.671Z,19.6
2023-05-15T16:51:02.700Z,19.6
2023-05-15T16:52:19.682Z,19.7
2023-05-15T16:53:36.699Z,19.8
2023-05-15T16:54:53.762Z,19.8
2023-05-15T16:56:10.695Z,19.8
2023-05-15T16:57:27.727Z,19.9
2023-05-15T16:58:44.735Z,20
2023-05-15T17:00:01.732Z,20
2023-05-15T17:01:18.786Z,19.9
2023-05-15T17:02:35.825Z,19.9
2023-05-15T17:03:52.927Z,19.8
2023-05-15T17:05:09.766Z,19.8
2023-05-15T17:06:26.758Z,19.8
2023-05-15T17:07:43.726Z,19.9
2023-05-15T17:09:00.743Z,19.9
2023-05-15T17:10:17.768Z,19.9
2023-05-15T17:11:34.762Z,19.9
2023-05-15T17:12:51.767Z,19.8